sensor_id;sensor_type;location;lat;lon;timestamp;pressure;altitude;pressure_sealevel;temperature;humidity
61898;BME280;47850;50.274;18.908;2023-02-14T00:01:23;99877.38;;;2.49;98.78
61898;BME280;47850;50.274;18.908;2023-02-14T00:03:51;99874.98;;;2.48;98.68
61898;BME280;47850;50.274;18.908;2023-02-14T00:06:19;99878.02;;;2.47;98.63
61898;BME280;47850;50.274;18.908;2023-02-14T00:08:47;99877.41;;;2.45;98.61
61898;BME280;47850;50.274;18.908;2023-02-14T00:11:15;99877.27;;;2.44;98.42
61898;BME280;47850;50.274;18.908;2023-02-14T00:13:42;99878.73;;;2.42;98.25
61898;BME280;47850;50.274;18.908;2023-02-14T00:16:31;99874.25;;;2.40;98.21
61898;BME280;47850;50.274;18.908;2023-02-14T00:18:59;99875.29;;;2.38;98.14
61898;BME280;47850;50.274;18.908;2023-02-14T00:21:31;99879.48;;;2.38;98.13
61898;BME280;47850;50.274;18.908;2023-02-14T00:24:08;99881.39;;;2.37;98.18
61898;BME280;47850;50.274;18.908;2023-02-14T00:26:36;99884.80;;;2.38;98.12
61898;BME280;47850;50.274;18.908;2023-02-14T00:29:06;99883.97;;;2.37;98.00
61898;BME280;47850;50.274;18.908;2023-02-14T00:31:34;99887.92;;;2.36;97.83
61898;BME280;47850;50.274;18.908;2023-02-14T00:34:05;99889.76;;;2.34;97.70
61898;BME280;47850;50.274;18.908;2023-02-14T00:36:33;99889.23;;;2.33;97.77
61898;BME280;47850;50.274;18.908;2023-02-14T00:39:02;99887.05;;;2.31;97.78
61898;BME280;47850;50.274;18.908;2023-02-14T00:41:30;99884.38;;;2.29;97.72
61898;BME280;47850;50.274;18.908;2023-02-14T00:43:58;99889.40;;;2.28;97.72
61898;BME280;47850;50.274;18.908;2023-02-14T00:46:27;99887.27;;;2.26;97.65
61898;BME280;47850;50.274;18.908;2023-02-14T00:48:55;99890.52;;;2.24;97.81
61898;BME280;47850;50.274;18.908;2023-02-14T00:51:24;99887.02;;;2.22;97.84
61898;BME280;47850;50.274;18.908;2023-02-14T00:53:52;99894.39;;;2.22;97.87
61898;BME280;47850;50.274;18.908;2023-02-14T00:56:20;99890.88;;;2.20;98.00
61898;BME280;47850;50.274;18.908;2023-02-14T00:58:48;99892.04;;;2.20;98.03
61898;BME280;47850;50.274;18.908;2023-02-14T01:01:17;99891.18;;;2.19;98.01
61898;BME280;47850;50.274;18.908;2023-02-14T01:03:45;99888.25;;;2.19;97.96
61898;BME280;47850;50.274;18.908;2023-02-14T01:06:13;99889.11;;;2.19;98.04
61898;BME280;47850;50.274;18.908;2023-02-14T01:08:41;99886.52;;;2.18;98.00
61898;BME280;47850;50.274;18.908;2023-02-14T01:11:13;99882.83;;;2.18;97.85
61898;BME280;47850;50.274;18.908;2023-02-14T01:13:41;99877.98;;;2.16;97.84
61898;BME280;47850;50.274;18.908;2023-02-14T01:16:13;99873.29;;;2.15;97.80
61898;BME280;47850;50.274;18.908;2023-02-14T01:18:42;99875.83;;;2.14;97.53
61898;BME280;47850;50.274;18.908;2023-02-14T01:23:42;99872.45;;;2.11;97.23
61898;BME280;47850;50.274;18.908;2023-02-14T01:26:10;99869.73;;;2.10;97.06
61898;BME280;47850;50.274;18.908;2023-02-14T01:28:39;99863.84;;;2.09;96.88
61898;BME280;47850;50.274;18.908;2023-02-14T01:31:17;99860.61;;;2.07;96.71
61898;BME280;47850;50.274;18.908;2023-02-14T01:33:46;99862.04;;;2.05;96.68
61898;BME280;47850;50.274;18.908;2023-02-14T01:36:17;99865.29;;;2.03;96.79
61898;BME280;47850;50.274;18.908;2023-02-14T01:38:46;99867.77;;;2.04;96.73
61898;BME280;47850;50.274;18.908;2023-02-14T01:41:14;99866.03;;;2.03;96.68
61898;BME280;47850;50.274;18.908;2023-02-14T01:46:43;99853.65;;;2.03;96.47
61898;BME280;47850;50.274;18.908;2023-02-14T01:49:24;99854.44;;;2.03;96.39
61898;BME280;47850;50.274;18.908;2023-02-14T01:52:00;99853.41;;;2.02;96.22
61898;BME280;47850;50.274;18.908;2023-02-14T01:54:30;99849.85;;;2.02;96.25
61898;BME280;47850;50.274;18.908;2023-02-14T01:57:04;99850.30;;;2.03;96.24
61898;BME280;47850;50.274;18.908;2023-02-14T01:59:36;99852.41;;;2.03;96.22
61898;BME280;47850;50.274;18.908;2023-02-14T02:02:06;99854.98;;;2.04;96.19
61898;BME280;47850;50.274;18.908;2023-02-14T02:04:37;99849.59;;;2.04;96.08
61898;BME280;47850;50.274;18.908;2023-02-14T02:07:09;99847.55;;;2.04;96.03
61898;BME280;47850;50.274;18.908;2023-02-14T02:09:46;99847.92;;;2.04;95.94
61898;BME280;47850;50.274;18.908;2023-02-14T02:12:15;99847.94;;;2.04;95.88
61898;BME280;47850;50.274;18.908;2023-02-14T02:14:43;99849.80;;;2.04;95.88
61898;BME280;47850;50.274;18.908;2023-02-14T02:28:51;99845.54;;;2.02;95.30
61898;BME280;47850;50.274;18.908;2023-02-14T02:37:47;99845.57;;;2.01;95.29
61898;BME280;47850;50.274;18.908;2023-02-14T02:43:49;99857.46;;;1.99;95.14
61898;BME280;47850;50.274;18.908;2023-02-14T02:46:24;99858.27;;;1.98;95.06
61898;BME280;47850;50.274;18.908;2023-02-14T02:52:41;99850.36;;;1.96;94.99
61898;BME280;47850;50.274;18.908;2023-02-14T02:55:32;99855.85;;;1.94;94.68
61898;BME280;47850;50.274;18.908;2023-02-14T02:58:29;99855.73;;;1.93;94.67
61898;BME280;47850;50.274;18.908;2023-02-14T03:01:00;99857.55;;;1.92;94.62
61898;BME280;47850;50.274;18.908;2023-02-14T03:03:30;99855.91;;;1.93;94.67
61898;BME280;47850;50.274;18.908;2023-02-14T03:06:17;99852.72;;;1.92;94.54
61898;BME280;47850;50.274;18.908;2023-02-14T03:08:45;99853.39;;;1.91;94.37
61898;BME280;47850;50.274;18.908;2023-02-14T03:11:14;99852.89;;;1.91;94.46
61898;BME280;47850;50.274;18.908;2023-02-14T03:22:56;99843.13;;;1.90;93.90
61898;BME280;47850;50.274;18.908;2023-02-14T03:36:54;99853.09;;;1.87;93.54
61898;BME280;47850;50.274;18.908;2023-02-14T03:39:28;99850.13;;;1.87;93.54
61898;BME280;47850;50.274;18.908;2023-02-14T03:42:04;99853.27;;;1.86;93.49
61898;BME280;47850;50.274;18.908;2023-02-14T03:44:35;99856.19;;;1.84;93.43
61898;BME280;47850;50.274;18.908;2023-02-14T03:47:13;99853.79;;;1.84;93.36
61898;BME280;47850;50.274;18.908;2023-02-14T03:49:46;99855.57;;;1.82;93.23
61898;BME280;47850;50.274;18.908;2023-02-14T03:52:16;99858.02;;;1.82;93.37
61898;BME280;47850;50.274;18.908;2023-02-14T03:54:45;99855.60;;;1.81;93.45
61898;BME280;47850;50.274;18.908;2023-02-14T03:57:22;99860.33;;;1.81;93.39
61898;BME280;47850;50.274;18.908;2023-02-14T03:59:52;99861.60;;;1.80;93.29
61898;BME280;47850;50.274;18.908;2023-02-14T04:04:53;99858.81;;;1.81;93.32
61898;BME280;47850;50.274;18.908;2023-02-14T04:07:23;99859.95;;;1.81;93.27
61898;BME280;47850;50.274;18.908;2023-02-14T04:09:52;99856.79;;;1.81;93.32
61898;BME280;47850;50.274;18.908;2023-02-14T04:12:19;99857.59;;;1.81;93.11
61898;BME280;47850;50.274;18.908;2023-02-14T04:14:47;99859.94;;;1.81;93.27
61898;BME280;47850;50.274;18.908;2023-02-14T04:17:15;99857.70;;;1.81;93.15
61898;BME280;47850;50.274;18.908;2023-02-14T04:20:01;99861.02;;;1.81;92.87
61898;BME280;47850;50.274;18.908;2023-02-14T04:22:29;99857.72;;;1.80;92.96
61898;BME280;47850;50.274;18.908;2023-02-14T04:24:57;99858.83;;;1.80;92.83
61898;BME280;47850;50.274;18.908;2023-02-14T04:27:25;99855.94;;;1.80;92.80
61898;BME280;47850;50.274;18.908;2023-02-14T04:29:52;99857.39;;;1.80;92.80
61898;BME280;47850;50.274;18.908;2023-02-14T04:32:21;99853.99;;;1.80;92.74
61898;BME280;47850;50.274;18.908;2023-02-14T04:34:49;99857.63;;;1.81;92.70
61898;BME280;47850;50.274;18.908;2023-02-14T04:37:18;99858.50;;;1.81;92.68
61898;BME280;47850;50.274;18.908;2023-02-14T04:39:46;99859.56;;;1.81;92.65
61898;BME280;47850;50.274;18.908;2023-02-14T04:42:14;99858.77;;;1.81;92.45
61898;BME280;47850;50.274;18.908;2023-02-14T04:44:42;99860.61;;;1.81;92.30
61898;BME280;47850;50.274;18.908;2023-02-14T04:47:10;99864.14;;;1.80;92.22
61898;BME280;47850;50.274;18.908;2023-02-14T04:49:38;99865.66;;;1.81;92.16
61898;BME280;47850;50.274;18.908;2023-02-14T04:52:06;99866.80;;;1.82;92.10
61898;BME280;47850;50.274;18.908;2023-02-14T04:54:33;99865.50;;;1.82;92.07
61898;BME280;47850;50.274;18.908;2023-02-14T04:57:01;99866.43;;;1.82;91.98
61898;BME280;47850;50.274;18.908;2023-02-14T04:59:29;99869.61;;;1.82;92.02
61898;BME280;47850;50.274;18.908;2023-02-14T05:01:57;99867.23;;;1.82;92.07
61898;BME280;47850;50.274;18.908;2023-02-14T05:04:25;99867.08;;;1.82;91.89
61898;BME280;47850;50.274;18.908;2023-02-14T05:06:53;99864.48;;;1.82;91.85
61898;BME280;47850;50.274;18.908;2023-02-14T05:09:20;99866.87;;;1.80;91.65
61898;BME280;47850;50.274;18.908;2023-02-14T05:11:48;99872.04;;;1.79;91.83
61898;BME280;47850;50.274;18.908;2023-02-14T05:14:16;99869.77;;;1.78;91.69
61898;BME280;47850;50.274;18.908;2023-02-14T05:16:44;99874.22;;;1.80;91.73
61898;BME280;47850;50.274;18.908;2023-02-14T05:19:12;99877.08;;;1.80;91.74
61898;BME280;47850;50.274;18.908;2023-02-14T05:21:39;99877.22;;;1.79;91.59
61898;BME280;47850;50.274;18.908;2023-02-14T05:24:07;99874.44;;;1.78;91.61
61898;BME280;47850;50.274;18.908;2023-02-14T05:26:35;99878.21;;;1.79;91.62
61898;BME280;47850;50.274;18.908;2023-02-14T05:29:03;99882.70;;;1.77;91.59
61898;BME280;47850;50.274;18.908;2023-02-14T05:31:31;99879.27;;;1.76;91.64
61898;BME280;47850;50.274;18.908;2023-02-14T05:33:59;99874.05;;;1.74;91.65
61898;BME280;47850;50.274;18.908;2023-02-14T05:36:27;99878.02;;;1.73;91.90
61898;BME280;47850;50.274;18.908;2023-02-14T05:38:54;99880.85;;;1.73;91.89
61898;BME280;47850;50.274;18.908;2023-02-14T05:41:22;99880.25;;;1.72;91.91
61898;BME280;47850;50.274;18.908;2023-02-14T05:43:50;99881.87;;;1.70;92.12
61898;BME280;47850;50.274;18.908;2023-02-14T05:46:18;99887.63;;;1.70;92.19
61898;BME280;47850;50.274;18.908;2023-02-14T05:48:45;99895.23;;;1.69;92.17
61898;BME280;47850;50.274;18.908;2023-02-14T05:51:13;99896.33;;;1.69;92.26
61898;BME280;47850;50.274;18.908;2023-02-14T05:53:41;99888.67;;;1.69;92.21
61898;BME280;47850;50.274;18.908;2023-02-14T05:56:09;99887.80;;;1.69;92.26
61898;BME280;47850;50.274;18.908;2023-02-14T05:58:37;99892.30;;;1.68;92.21
61898;BME280;47850;50.274;18.908;2023-02-14T06:01:05;99891.78;;;1.67;92.05
61898;BME280;47850;50.274;18.908;2023-02-14T06:03:33;99896.30;;;1.66;92.31
61898;BME280;47850;50.274;18.908;2023-02-14T06:06:00;99893.48;;;1.66;92.27
61898;BME280;47850;50.274;18.908;2023-02-14T06:08:29;99894.63;;;1.67;92.33
61898;BME280;47850;50.274;18.908;2023-02-14T06:10:57;99897.14;;;1.68;92.19
61898;BME280;47850;50.274;18.908;2023-02-14T06:13:24;99899.23;;;1.69;92.24
61898;BME280;47850;50.274;18.908;2023-02-14T06:15:52;99899.76;;;1.69;92.14
61898;BME280;47850;50.274;18.908;2023-02-14T06:18:20;99906.79;;;1.69;91.94
61898;BME280;47850;50.274;18.908;2023-02-14T06:20:48;99902.64;;;1.70;91.99
61898;BME280;47850;50.274;18.908;2023-02-14T06:23:15;99906.36;;;1.71;91.88
61898;BME280;47850;50.274;18.908;2023-02-14T06:25:43;99910.34;;;1.70;91.82
61898;BME280;47850;50.274;18.908;2023-02-14T06:28:11;99915.42;;;1.71;91.87
61898;BME280;47850;50.274;18.908;2023-02-14T06:30:39;99913.47;;;1.72;91.82
61898;BME280;47850;50.274;18.908;2023-02-14T06:33:07;99913.47;;;1.73;91.83
61898;BME280;47850;50.274;18.908;2023-02-14T06:35:35;99911.75;;;1.75;91.87
61898;BME280;47850;50.274;18.908;2023-02-14T06:38:03;99913.75;;;1.78;91.77
61898;BME280;47850;50.274;18.908;2023-02-14T06:40:31;99909.52;;;1.80;91.66
61898;BME280;47850;50.274;18.908;2023-02-14T06:42:58;99916.50;;;1.81;91.50
61898;BME280;47850;50.274;18.908;2023-02-14T06:45:26;99916.80;;;1.82;91.44
61898;BME280;47850;50.274;18.908;2023-02-14T06:47:54;99921.59;;;1.84;91.43
61898;BME280;47850;50.274;18.908;2023-02-14T06:50:22;99912.55;;;1.85;91.43
61898;BME280;47850;50.274;18.908;2023-02-14T06:52:50;99910.63;;;1.87;91.31
61898;BME280;47850;50.274;18.908;2023-02-14T06:55:18;99914.04;;;1.90;91.45
61898;BME280;47850;50.274;18.908;2023-02-14T06:57:45;99919.27;;;1.92;91.25
61898;BME280;47850;50.274;18.908;2023-02-14T07:00:13;99918.86;;;1.94;91.06
61898;BME280;47850;50.274;18.908;2023-02-14T07:02:41;99918.61;;;1.97;91.02
61898;BME280;47850;50.274;18.908;2023-02-14T07:05:09;99917.02;;;2.00;91.01
61898;BME280;47850;50.274;18.908;2023-02-14T07:07:37;99925.02;;;2.03;90.92
61898;BME280;47850;50.274;18.908;2023-02-14T07:10:06;99924.66;;;2.07;90.88
61898;BME280;47850;50.274;18.908;2023-02-14T07:12:34;99922.77;;;2.11;90.71
61898;BME280;47850;50.274;18.908;2023-02-14T07:15:02;99928.17;;;2.14;90.52
61898;BME280;47850;50.274;18.908;2023-02-14T07:17:29;99930.20;;;2.18;90.34
61898;BME280;47850;50.274;18.908;2023-02-14T07:19:57;99935.30;;;2.21;90.20
61898;BME280;47850;50.274;18.908;2023-02-14T07:22:25;99932.23;;;2.23;89.83
61898;BME280;47850;50.274;18.908;2023-02-14T07:24:53;99935.47;;;2.27;89.70
61898;BME280;47850;50.274;18.908;2023-02-14T07:27:21;99936.40;;;2.29;89.50
61898;BME280;47850;50.274;18.908;2023-02-14T07:29:48;99935.00;;;2.32;89.32
61898;BME280;47850;50.274;18.908;2023-02-14T07:32:16;99932.62;;;2.36;89.29
61898;BME280;47850;50.274;18.908;2023-02-14T07:34:44;99931.24;;;2.39;89.09
61898;BME280;47850;50.274;18.908;2023-02-14T07:37:12;99926.97;;;2.42;88.78
61898;BME280;47850;50.274;18.908;2023-02-14T07:39:40;99929.60;;;2.46;88.76
61898;BME280;47850;50.274;18.908;2023-02-14T07:42:07;99929.56;;;2.51;88.77
61898;BME280;47850;50.274;18.908;2023-02-14T07:44:36;99937.36;;;2.54;88.48
61898;BME280;47850;50.274;18.908;2023-02-14T07:47:08;99936.05;;;2.57;88.48
61898;BME280;47850;50.274;18.908;2023-02-14T07:49:36;99934.08;;;2.60;88.39
61898;BME280;47850;50.274;18.908;2023-02-14T07:52:04;99932.59;;;2.62;88.16
61898;BME280;47850;50.274;18.908;2023-02-14T07:54:32;99932.69;;;2.65;87.86
61898;BME280;47850;50.274;18.908;2023-02-14T07:57:00;99934.16;;;2.64;87.08
61898;BME280;47850;50.274;18.908;2023-02-14T07:59:27;99932.21;;;2.64;87.14
61898;BME280;47850;50.274;18.908;2023-02-14T08:01:55;99935.27;;;2.67;87.36
61898;BME280;47850;50.274;18.908;2023-02-14T08:04:23;99939.11;;;2.71;87.23
61898;BME280;47850;50.274;18.908;2023-02-14T08:06:53;99936.48;;;2.78;87.09
61898;BME280;47850;50.274;18.908;2023-02-14T08:09:21;99936.66;;;2.81;86.66
61898;BME280;47850;50.274;18.908;2023-02-14T08:11:56;99936.91;;;2.87;86.56
61898;BME280;47850;50.274;18.908;2023-02-14T08:14:43;99933.15;;;2.91;86.33
61898;BME280;47850;50.274;18.908;2023-02-14T08:17:11;99935.87;;;2.95;86.02
61898;BME280;47850;50.274;18.908;2023-02-14T08:19:40;99936.95;;;2.99;85.73
61898;BME280;47850;50.274;18.908;2023-02-14T08:22:08;99944.55;;;3.05;85.71
61898;BME280;47850;50.274;18.908;2023-02-14T08:24:36;99947.31;;;3.13;85.71
61898;BME280;47850;50.274;18.908;2023-02-14T08:27:04;99940.71;;;3.20;85.47
61898;BME280;47850;50.274;18.908;2023-02-14T08:29:31;99939.35;;;3.26;85.06
61898;BME280;47850;50.274;18.908;2023-02-14T08:31:59;99946.52;;;3.31;84.57
61898;BME280;47850;50.274;18.908;2023-02-14T08:34:27;99944.70;;;3.33;84.14
61898;BME280;47850;50.274;18.908;2023-02-14T08:36:57;99948.20;;;3.38;84.47
61898;BME280;47850;50.274;18.908;2023-02-14T08:39:25;99948.60;;;3.42;84.17
61898;BME280;47850;50.274;18.908;2023-02-14T08:41:53;99943.78;;;3.46;84.06
61898;BME280;47850;50.274;18.908;2023-02-14T08:44:21;99945.92;;;3.49;83.85
61898;BME280;47850;50.274;18.908;2023-02-14T08:46:49;99948.01;;;3.52;83.78
61898;BME280;47850;50.274;18.908;2023-02-14T08:49:16;99954.30;;;3.56;83.57
61898;BME280;47850;50.274;18.908;2023-02-14T08:51:44;99955.33;;;3.60;83.34
61898;BME280;47850;50.274;18.908;2023-02-14T08:54:12;99955.24;;;3.65;83.18
61898;BME280;47850;50.274;18.908;2023-02-14T08:56:40;99958.59;;;3.70;82.71
61898;BME280;47850;50.274;18.908;2023-02-14T08:59:08;99959.02;;;3.71;82.46
61898;BME280;47850;50.274;18.908;2023-02-14T09:01:35;99961.85;;;3.71;82.21
61898;BME280;47850;50.274;18.908;2023-02-14T09:04:03;99964.59;;;3.72;82.15
61898;BME280;47850;50.274;18.908;2023-02-14T09:06:31;99964.35;;;3.73;81.94
61898;BME280;47850;50.274;18.908;2023-02-14T09:08:59;99964.38;;;3.74;81.65
61898;BME280;47850;50.274;18.908;2023-02-14T09:11:27;99969.15;;;3.77;81.68
61898;BME280;47850;50.274;18.908;2023-02-14T09:13:55;99964.74;;;3.80;81.58
61898;BME280;47850;50.274;18.908;2023-02-14T09:16:24;99962.59;;;3.82;81.29
61898;BME280;47850;50.274;18.908;2023-02-14T09:18:52;99965.88;;;3.86;81.37
61898;BME280;47850;50.274;18.908;2023-02-14T09:21:25;99963.94;;;3.93;81.64
61898;BME280;47850;50.274;18.908;2023-02-14T09:23:53;99965.23;;;4.03;81.66
61898;BME280;47850;50.274;18.908;2023-02-14T09:26:21;99962.13;;;4.09;80.86
61898;BME280;47850;50.274;18.908;2023-02-14T09:28:49;99959.98;;;4.12;80.66
61898;BME280;47850;50.274;18.908;2023-02-14T09:31:19;99961.88;;;4.19;80.84
61898;BME280;47850;50.274;18.908;2023-02-14T09:33:48;99961.63;;;4.26;80.62
61898;BME280;47850;50.274;18.908;2023-02-14T09:36:16;99967.41;;;4.33;80.73
61898;BME280;47850;50.274;18.908;2023-02-14T09:38:47;99969.92;;;4.39;80.32
61898;BME280;47850;50.274;18.908;2023-02-14T09:41:31;99971.57;;;4.40;79.96
61898;BME280;47850;50.274;18.908;2023-02-14T09:49:58;99979.77;;;4.44;79.53
61898;BME280;47850;50.274;18.908;2023-02-14T09:52:28;99977.69;;;4.47;79.76
61898;BME280;47850;50.274;18.908;2023-02-14T09:54:59;99974.27;;;4.55;80.04
61898;BME280;47850;50.274;18.908;2023-02-14T10:01:19;99971.23;;;4.71;79.37
61898;BME280;47850;50.274;18.908;2023-02-14T10:03:55;99969.21;;;4.80;79.11
61898;BME280;47850;50.274;18.908;2023-02-14T10:06:44;99965.14;;;4.84;79.07
61898;BME280;47850;50.274;18.908;2023-02-14T10:09:42;99970.78;;;4.90;78.80
61898;BME280;47850;50.274;18.908;2023-02-14T10:12:45;99970.05;;;5.01;78.78
61898;BME280;47850;50.274;18.908;2023-02-14T10:15:19;99969.86;;;5.10;78.88
61898;BME280;47850;50.274;18.908;2023-02-14T10:17:53;99972.32;;;5.22;78.84
61898;BME280;47850;50.274;18.908;2023-02-14T10:20:32;99975.46;;;5.34;78.20
61898;BME280;47850;50.274;18.908;2023-02-14T10:23:08;99973.28;;;5.41;77.95
61898;BME280;47850;50.274;18.908;2023-02-14T10:25:52;99973.90;;;5.42;76.84
61898;BME280;47850;50.274;18.908;2023-02-14T10:28:30;99975.02;;;5.39;76.54
61898;BME280;47850;50.274;18.908;2023-02-14T10:33:33;99974.48;;;5.39;76.77
61898;BME280;47850;50.274;18.908;2023-02-14T10:36:15;99975.55;;;5.41;76.23
61898;BME280;47850;50.274;18.908;2023-02-14T10:50:16;99968.21;;;5.26;75.86
61898;BME280;47850;50.274;18.908;2023-02-14T10:53:35;99962.13;;;5.19;76.26
61898;BME280;47850;50.274;18.908;2023-02-14T10:55:50;99965.20;;;5.15;76.30
61898;BME280;47850;50.274;18.908;2023-02-14T10:58:23;99957.11;;;5.07;75.93
61898;BME280;47850;50.274;18.908;2023-02-14T11:01:06;99957.28;;;4.99;75.96
61898;BME280;47850;50.274;18.908;2023-02-14T11:03:37;99953.59;;;4.90;76.22
61898;BME280;47850;50.274;18.908;2023-02-14T11:06:08;99944.02;;;4.92;76.91
61898;BME280;47850;50.274;18.908;2023-02-14T11:08:39;99940.21;;;4.97;76.83
61898;BME280;47850;50.274;18.908;2023-02-14T11:11:26;99943.15;;;5.00;76.77
61898;BME280;47850;50.274;18.908;2023-02-14T11:13:56;99945.69;;;5.00;76.11
61898;BME280;47850;50.274;18.908;2023-02-14T11:16:35;99948.48;;;5.00;75.85
61898;BME280;47850;50.274;18.908;2023-02-14T11:21:38;99941.80;;;5.03;76.30
61898;BME280;47850;50.274;18.908;2023-02-14T11:24:39;99941.49;;;5.06;76.15
61898;BME280;47850;50.274;18.908;2023-02-14T11:37:31;99931.79;;;4.77;75.88
61898;BME280;47850;50.274;18.908;2023-02-14T11:40:01;99924.31;;;4.73;76.60
61898;BME280;47850;50.274;18.908;2023-02-14T11:45:01;99927.97;;;4.72;76.87
61898;BME280;47850;50.274;18.908;2023-02-14T11:47:33;99926.02;;;4.76;76.97
61898;BME280;47850;50.274;18.908;2023-02-14T11:50:22;99919.88;;;4.78;76.72
61898;BME280;47850;50.274;18.908;2023-02-14T11:52:54;99921.25;;;4.85;76.30
61898;BME280;47850;50.274;18.908;2023-02-14T11:55:27;99916.16;;;4.89;75.70
61898;BME280;47850;50.274;18.908;2023-02-14T11:57:56;99915.17;;;4.93;75.49
61898;BME280;47850;50.274;18.908;2023-02-14T12:00:25;99912.36;;;4.94;75.52
61898;BME280;47850;50.274;18.908;2023-02-14T12:03:00;99913.49;;;4.93;75.41
61898;BME280;47850;50.274;18.908;2023-02-14T12:05:50;99907.81;;;4.93;75.62
61898;BME280;47850;50.274;18.908;2023-02-14T12:08:27;99903.23;;;4.97;75.75
61898;BME280;47850;50.274;18.908;2023-02-14T12:13:54;99905.52;;;4.98;75.47
61898;BME280;47850;50.274;18.908;2023-02-14T12:16:46;99898.54;;;4.97;75.65
61898;BME280;47850;50.274;18.908;2023-02-14T12:19:18;99895.98;;;5.00;75.85
61898;BME280;47850;50.274;18.908;2023-02-14T12:22:02;99896.54;;;5.01;76.00
61898;BME280;47850;50.274;18.908;2023-02-14T12:24:34;99891.10;;;4.99;75.35
61898;BME280;47850;50.274;18.908;2023-02-14T12:29:35;99886.05;;;4.91;75.28
61898;BME280;47850;50.274;18.908;2023-02-14T12:32:34;99886.01;;;4.90;75.36
61898;BME280;47850;50.274;18.908;2023-02-14T12:35:11;99881.14;;;4.85;75.41
61898;BME280;47850;50.274;18.908;2023-02-14T12:40:57;99883.71;;;4.86;75.94
61898;BME280;47850;50.274;18.908;2023-02-14T12:43:55;99880.99;;;4.85;76.00
61898;BME280;47850;50.274;18.908;2023-02-14T13:02:57;99867.54;;;4.54;76.58
61898;BME280;47850;50.274;18.908;2023-02-14T13:05:59;99870.56;;;4.54;76.42
61898;BME280;47850;50.274;18.908;2023-02-14T13:22:28;99856.52;;;4.73;75.93
61898;BME280;47850;50.274;18.908;2023-02-14T13:25:00;99853.38;;;4.74;75.43
61898;BME280;47850;50.274;18.908;2023-02-14T13:27:32;99851.48;;;4.77;75.42
61898;BME280;47850;50.274;18.908;2023-02-14T13:30:05;99850.21;;;4.76;75.13
61898;BME280;47850;50.274;18.908;2023-02-14T13:32:40;99848.73;;;4.75;75.15
61898;BME280;47850;50.274;18.908;2023-02-14T13:35:15;99844.95;;;4.75;75.35
61898;BME280;47850;50.274;18.908;2023-02-14T13:37:53;99850.41;;;4.75;75.44
61898;BME280;47850;50.274;18.908;2023-02-14T13:40:24;99856.45;;;4.75;75.74
61898;BME280;47850;50.274;18.908;2023-02-14T13:42:58;99847.13;;;4.73;75.61
61898;BME280;47850;50.274;18.908;2023-02-14T13:51:01;99851.20;;;4.69;76.02
61898;BME280;47850;50.274;18.908;2023-02-14T13:53:34;99848.83;;;4.69;76.27
61898;BME280;47850;50.274;18.908;2023-02-14T13:58:59;99847.67;;;4.71;75.74
61898;BME280;47850;50.274;18.908;2023-02-14T14:01:34;99851.72;;;4.70;76.05
61898;BME280;47850;50.274;18.908;2023-02-14T14:04:06;99849.20;;;4.71;75.81
61898;BME280;47850;50.274;18.908;2023-02-14T14:22:47;99846.27;;;4.55;75.45
61898;BME280;47850;50.274;18.908;2023-02-14T14:25:38;99843.36;;;4.53;75.67
61898;BME280;47850;50.274;18.908;2023-02-14T14:28:19;99843.88;;;4.52;76.05
61898;BME280;47850;50.274;18.908;2023-02-14T14:30:47;99847.39;;;4.51;75.67
61898;BME280;47850;50.274;18.908;2023-02-14T14:33:29;99849.65;;;4.51;75.86
61898;BME280;47850;50.274;18.908;2023-02-14T14:36:02;99852.67;;;4.51;75.84
61898;BME280;47850;50.274;18.908;2023-02-14T14:38:32;99854.23;;;4.50;75.82
61898;BME280;47850;50.274;18.908;2023-02-14T14:41:01;99850.61;;;4.51;75.87
61898;BME280;47850;50.274;18.908;2023-02-14T14:43:31;99849.02;;;4.51;75.91
61898;BME280;47850;50.274;18.908;2023-02-14T14:46:01;99851.56;;;4.50;75.90
61898;BME280;47850;50.274;18.908;2023-02-14T14:48:31;99847.84;;;4.50;75.83
61898;BME280;47850;50.274;18.908;2023-02-14T14:50:59;99848.98;;;4.46;75.90
61898;BME280;47850;50.274;18.908;2023-02-14T14:56:22;99845.27;;;4.38;76.12
61898;BME280;47850;50.274;18.908;2023-02-14T14:58:52;99844.27;;;4.37;76.40
61898;BME280;47850;50.274;18.908;2023-02-14T15:01:29;99844.83;;;4.36;76.40
61898;BME280;47850;50.274;18.908;2023-02-14T15:04:18;99837.92;;;4.31;76.46
61898;BME280;47850;50.274;18.908;2023-02-14T15:06:47;99834.50;;;4.27;76.55
61898;BME280;47850;50.274;18.908;2023-02-14T15:09:31;99835.89;;;4.24;76.71
61898;BME280;47850;50.274;18.908;2023-02-14T15:12:01;99834.72;;;4.20;76.89
61898;BME280;47850;50.274;18.908;2023-02-14T15:14:49;99832.52;;;4.13;77.03
61898;BME280;47850;50.274;18.908;2023-02-14T15:17:24;99832.20;;;4.11;77.40
61898;BME280;47850;50.274;18.908;2023-02-14T15:20:00;99833.30;;;4.07;77.37
61898;BME280;47850;50.274;18.908;2023-02-14T15:22:49;99835.77;;;4.04;77.48
61898;BME280;47850;50.274;18.908;2023-02-14T15:25:20;99836.95;;;3.99;77.65
61898;BME280;47850;50.274;18.908;2023-02-14T15:27:49;99838.80;;;3.97;77.74
61898;BME280;47850;50.274;18.908;2023-02-14T15:30:29;99841.02;;;3.95;77.93
61898;BME280;47850;50.274;18.908;2023-02-14T15:33:01;99840.31;;;3.90;77.86
61898;BME280;47850;50.274;18.908;2023-02-14T15:35:34;99839.66;;;3.88;77.91
61898;BME280;47850;50.274;18.908;2023-02-14T15:38:04;99845.04;;;3.87;78.15
61898;BME280;47850;50.274;18.908;2023-02-14T15:40:34;99847.42;;;3.85;77.64
61898;BME280;47850;50.274;18.908;2023-02-14T15:43:28;99846.14;;;3.80;77.26
61898;BME280;47850;50.274;18.908;2023-02-14T15:48:41;99844.91;;;3.77;77.31
61898;BME280;47850;50.274;18.908;2023-02-14T15:51:16;99841.99;;;3.75;77.35
61898;BME280;47850;50.274;18.908;2023-02-14T15:53:57;99845.86;;;3.74;77.22
61898;BME280;47850;50.274;18.908;2023-02-14T15:56:27;99848.37;;;3.73;77.56
61898;BME280;47850;50.274;18.908;2023-02-14T15:59:10;99853.58;;;3.72;77.62
61898;BME280;47850;50.274;18.908;2023-02-14T16:01:39;99853.72;;;3.71;77.56
61898;BME280;47850;50.274;18.908;2023-02-14T16:04:07;99853.36;;;3.69;77.42
61898;BME280;47850;50.274;18.908;2023-02-14T16:06:38;99850.72;;;3.66;77.48